createdAt,value
2018-06-17T00:08:47.643Z,17.1
2018-06-17T00:25:32.174Z,16.8
2018-06-17T00:42:16.192Z,16.5
2018-06-17T00:59:00.127Z,16.2
2018-06-17T01:15:44.063Z,16.2
2018-06-17T01:32:27.564Z,15.8
2018-06-17T01:49:10.525Z,15.5
2018-06-17T02:05:53.278Z,15.2
2018-06-17T02:22:35.804Z,15.2
2018-06-17T02:39:18.157Z,14.9
2018-06-17T02:56:00.582Z,15.2
2018-06-17T03:12:42.990Z,14.9
2018-06-17T03:29:25.184Z,14.6
2018-06-17T03:46:07.409Z,14.9
2018-06-17T04:02:49.829Z,15.2
2018-06-17T04:19:32.923Z,15.5
2018-06-17T04:36:16.238Z,15.5
2018-06-17T04:52:59.456Z,15.2
2018-06-17T05:09:42.560Z,15.5
2018-06-17T05:23:05.267Z,16.2
2018-06-17T05:36:28.413Z,16.8
2018-06-17T05:53:12.721Z,17.4
2018-06-17T06:09:57.588Z,18.1
2018-06-17T06:26:42.999Z,18.7
2018-06-17T06:43:28.924Z,19.4
2018-06-17T07:00:15.324Z,19.7
2018-06-17T07:17:01.687Z,19.4
2018-06-17T07:33:48.195Z,19.4
2018-06-17T07:50:34.781Z,19.7
2018-06-17T08:04:00.334Z,20.3
2018-06-17T08:20:47.678Z,20.6
2018-06-17T08:37:35.468Z,21.0
2018-06-17T08:54:23.103Z,20.3
2018-06-17T09:11:10.543Z,20.3
2018-06-17T09:27:57.929Z,20.3
2018-06-17T09:44:45.048Z,20.0
2018-06-17T10:01:32.405Z,20.6
2018-06-17T10:18:20.139Z,20.6
2018-06-17T10:35:07.811Z,20.6
2018-06-17T10:51:55.572Z,21.0
2018-06-17T11:08:43.546Z,21.0
2018-06-17T11:25:31.384Z,20.3
2018-06-17T11:35:35.910Z,21.0
2018-06-17T11:52:24.014Z,21.0
2018-06-17T12:09:12.074Z,21.3
2018-06-17T12:26:00.473Z,21.3
2018-06-17T12:32:43.922Z,21.9
2018-06-17T12:39:27.678Z,22.6
2018-06-17T12:56:17.174Z,22.2
2018-06-17T13:09:44.347Z,21.6
2018-06-17T13:23:10.953Z,21.0
2018-06-17T13:39:58.943Z,21.3
2018-06-17T13:56:47.447Z,21.6
2018-06-17T14:10:14.524Z,22.2
2018-06-17T14:27:03.706Z,22.2
2018-06-17T14:43:52.874Z,22.2
2018-06-17T14:53:58.149Z,21.6
2018-06-17T15:10:46.653Z,21.6
2018-06-17T15:24:13.541Z,22.2
2018-06-17T15:41:02.872Z,22.2
2018-06-17T15:57:52.077Z,22.2
2018-06-17T16:07:57.691Z,22.9
2018-06-17T16:21:25.693Z,22.2
2018-06-17T16:28:08.890Z,21.6
2018-06-17T16:44:57.105Z,21.3
2018-06-17T16:55:01.705Z,20.6
2018-06-17T17:11:49.052Z,20.6
2018-06-17T17:18:32.271Z,21.3
2018-06-17T17:28:37.144Z,20.6
2018-06-17T17:45:24.625Z,20.3
2018-06-17T18:02:12.128Z,20.6
2018-06-17T18:18:59.607Z,20.0
2018-06-17T18:49:11.394Z,19.0
2018-06-17T19:05:57.488Z,18.7
2018-06-17T19:22:43.134Z,18.1
2018-06-17T19:32:46.111Z,17.4
2018-06-17T19:49:30.754Z,17.1
2018-06-17T20:06:15.189Z,17.1
2018-06-17T20:22:59.193Z,16.8
2018-06-17T20:39:43.363Z,16.8
2018-06-17T20:56:27.346Z,16.5
2018-06-17T21:13:11.261Z,16.5
2018-06-17T21:29:55.086Z,16.5
2018-06-17T21:46:38.937Z,16.2
2018-06-17T22:03:22.687Z,16.2
2018-06-17T22:20:06.275Z,16.2
2018-06-17T22:36:49.946Z,16.2
2018-06-17T22:53:33.681Z,16.2
2018-06-17T23:10:17.380Z,16.2
2018-06-17T23:27:01.011Z,16.2
2018-06-17T23:43:44.705Z,15.8
